ADDS METAR Data INFO
IDs: Format: Raw Decoded Include TAF

Data at: 1555 UTC 12 Dec 2017

KEWB 121553Z 12008KT 5SM RA BR BKN024 OVC031 07/07 A2965 RMK AO2 RAB10 PRESFR SLP040 P0003 T00720067
KEWB 121544Z 11008KT 7SM -RA BKN026 OVC034 07/06 A2966 RMK AO2 RAB10 P0001 T00670061
KEWB 121453Z 12012KT 10SM SCT028 BKN036 OVC044 07/05 A2971 RMK AO2 SLP061 T00670050 56020
KEWB 121353Z 15007KT 10SM BKN037 BKN044 OVC085 07/03 A2975 RMK AO2 SLP074 T00670028
KEWB 121253Z 09004KT 10SM FEW030 SCT037 OVC110 03/02 A2977 RMK AO2 PRESFR SLP081 T00280017
KEWB 121153Z 00000KT 10SM FEW036 OVC046 01/00 A2982 RMK AO2 SLP098 T00110000 10011 21017 56027 $
KEWB 121053Z AUTO 06003KT 10SM OVC045 01/M01 A2985 RMK AO2 SLP107 T00111006 $
KEWB 120953Z AUTO 00000KT 10SM OVC043 01/M01 A2987 RMK AO2 SLP114 T00061011 $
KEWB 120853Z AUTO 00000KT 10SM OVC039 00/M01 A2990 RMK AO2 SLP125 T00001011 58025 $
KEWB 120753Z AUTO 00000KT 10SM FEW034 BKN044 OVC085 M01/M01 A2993 RMK AO2 SLP136 T10061006 $
KEWB 120653Z AUTO 00000KT 10SM BKN044 BKN090 M02/M02 A2995 RMK AO2 SLP143 T10171017 $
KEWB 120553Z AUTO 00000KT 10SM OVC038 M01/M01 A2997 RMK AO2 SLP150 I6000 T10111011 11011 21039 56014 $
KEWB 120453Z AUTO 00000KT 10SM BKN043 OVC110 M02/M02 A2999 RMK AO2 SLP155 T10171017 400441039 $
KEWB 120353Z AUTO 00000KT 10SM SCT120 M02/M02 A3000 RMK AO2 SLP158 T10221022 $
KEWB 120253Z 00000KT 10SM SCT044 M03/M03 A3001 RMK AO2 SLP164 I3000 T10281028 58004 $
KEWB 120153Z 00000KT 10SM CLR M03/M03 A3003 RMK AO2 SLP169 I1000 T10281028 $
KEWB 120053Z 00000KT 10SM CLR M03/M03 A3002 RMK AO2 SLP167 T10331033 $
KEWB 112353Z 00000KT 10SM CLR M02/M03 A3003 RMK AO2 SLP168 T10221028 10044 21022 51016 $
KEWB 112253Z 00000KT 10SM CLR M02/M03 A3001 RMK AO2 SLP164 T10171028 $
KEWB 112153Z 00000KT 10SM FEW046 00/M03 A3000 RMK AO2 SLP160 T00001033 $
KEWB 112053Z 28004KT 10SM FEW043 03/M05 A2998 RMK AO2 SLP152 T00281050 53008 $
KEWB 111953Z 25006KT 10SM CLR 04/M05 A2997 RMK AO2 SLP148 T00391050 $
KEWB 111853Z 28006KT 10SM CLR 04/M05 A2995 RMK AO2 SLP142 T00391050 $
KEWB 111753Z 25010KT 10SM CLR 04/M04 A2996 RMK AO2 SLP144 T00391039 10039 20006 56012 $
KEWB 111653Z 29009KT 10SM CLR 03/M04 A2997 RMK AO2 SLP149 T00331039 $
KEWB 111553Z 27009KT 10SM BKN080 03/M03 A2997 RMK AO2 SLP149 T00281033 $
KEWB 111453Z 26010KT 10SM FEW095 02/M03 A2999 RMK AO2 SLP156 T00221033 50004 $
KEWB 111353Z 26007G16KT 10SM FEW040 SCT050 SCT080 01/M04 A2999 RMK AO2 SLP157 T00111039 $
KEWB 111253Z 25005KT 10SM BKN055 BKN070 01/M04 A2999 RMK AO2 SLP155 T00061044 $
KEWB 111153Z 26004KT 10SM OVC085 01/M04 A2998 RMK AO2 SLP152 T00061044 10017 20000 53009 $
KEWB 111053Z AUTO 27003KT 10SM BKN040 OVC065 01/M05 A2996 RMK AO2 SLP146 T00061050 $
KEWB 110953Z AUTO 26007KT 10SM FEW075 BKN100 00/M06 A2995 RMK AO2 SLP141 T00001056 $
KEWB 110853Z AUTO 22004KT 10SM FEW043 OVC060 02/M06 A2995 RMK AO2 SLP143 T00171056 56006 $
KEWB 110753Z AUTO 26004KT 10SM BKN070 OVC090 01/M05 A2995 RMK AO2 SLP143 T00111050 $
KEWB 110653Z AUTO 26006KT 10SM FEW048 OVC090 02/M05 A2996 RMK AO2 SLP146 T00171050 $
KEWB 110553Z AUTO 25006KT 10SM SCT050 SCT090 BKN110 02/M04 A2997 RMK AO2 SLP149 60000 T00171044 10017 21033 50000 $
KEWB 110453Z AUTO 25005KT 10SM OVC043 02/M04 A2997 RMK AO2 UPB09E18 SLP148 P0000 T00171039 400331033 $